Dodgeville, WI (53533)

7:34 AM CST on February 08, 2016 (GMT -0600)
KWIDODGE2 | | Change Station
CLOSE
Current Station
Personal Weather Station
Location: Dodgeville, WI
Elevation: 1240 ft
Nearby Weather Stations

Elev 1240 ft 42.96 °N, 90.13 °W | Updated 49 seconds ago

Snow
Snow
18.4 °F
Feels Like 18 °F
N
2.0
Wind Variable Wind from ENE
Gusts 5.0 mph

Today
High -- | Low -- °F
--% Chance of Precip.
Yesterday
High -- | Low -- °F
Precip. -- in
Pressure 29.67 in
Visibility 2.5 miles
Clouds Scattered Clouds 1400 ft
Scattered Clouds 2000 ft
Windchill 18 °F
Dew Point 16 °F
Humidity 90%
Rainfall 0.00 in
Snow Depth Not available.
7:07 AM 5:22 PM
Waning Crescent, 0% visible
METAR KMRJ 081315Z AUTO 31010G16KT 2 1/2SM -SN SCT014 SCT020 M06/M08 A2967 RMK AO2
Pressure 29.67 in
Visibility 2.5 miles
Clouds Scattered Clouds 1400 ft
Scattered Clouds 2000 ft
Windchill 18 °F
Dew Point 16 °F
Humidity 90%
Rainfall 0.00 in
Snow Depth Not available.
7:07 AM 5:22 PM
Waning Crescent, 0% visible
METAR KMRJ 081315Z AUTO 31010G16KT 2 1/2SM -SN SCT014 SCT020 M06/M08 A2967 RMK AO2

10-Day Weather Forecast

Almanac

Astronomy

Feb. 08, 2016 Rise Set
Actual Time
Civil Twilight
Nautical Twilight
Astronomical Twilight
Moon
Length of Visible Light
Length of Day
Tomorrow will be .
, % of the Moon is Illuminated

Today's Extremes

State Highs State Lows

Community

WunderPhotos

Upload Photos

1,891,434 photos uploaded!

WunderBlog® & News

Nearby

Air Quality

  Air Quality AQ Index Pollutant
Not available.

Snow Depth

Station Depth Elevation

Earthquake Activity

City Distance Mag. Time & Date
Minimum magnitude displayed is 2.5.

Coastal Water Temperatures

Place Temperature

Stations

Nearby Weather Stations

Station Location Temp. Windchill Dew Point Humidity Wind Precip. Elev Updated Type
                   

Watches & Warnings

There are currently no watches in effect.